sensor_id;sensor_type;location;lat;lon;timestamp;pressure;altitude;pressure_sealevel;temperature
7882;BMP180;3986;41.884;23.466;2022-09-09T00:00:13;92418.00;;;15.50
7882;BMP180;3986;41.884;23.466;2022-09-09T00:02:43;92417.00;;;15.70
7882;BMP180;3986;41.884;23.466;2022-09-09T00:05:19;92412.00;;;16.00
7882;BMP180;3986;41.884;23.466;2022-09-09T00:07:53;92405.00;;;15.70
7882;BMP180;3986;41.884;23.466;2022-09-09T00:10:25;92400.00;;;15.80
7882;BMP180;3986;41.884;23.466;2022-09-09T00:12:59;92407.00;;;15.80
7882;BMP180;3986;41.884;23.466;2022-09-09T00:15:31;92395.00;;;15.30
7882;BMP180;3986;41.884;23.466;2022-09-09T00:18:03;92404.00;;;15.40
7882;BMP180;3986;41.884;23.466;2022-09-09T00:20:38;92411.00;;;15.70
7882;BMP180;3986;41.884;23.466;2022-09-09T00:23:16;92393.00;;;15.60
7882;BMP180;3986;41.884;23.466;2022-09-09T00:25:50;92412.00;;;15.70
7882;BMP180;3986;41.884;23.466;2022-09-09T00:28:22;92418.00;;;16.00
7882;BMP180;3986;41.884;23.466;2022-09-09T00:30:49;92409.00;;;16.00
7882;BMP180;3986;41.884;23.466;2022-09-09T00:33:20;92413.00;;;16.10
7882;BMP180;3986;41.884;23.466;2022-09-09T00:35:49;92407.00;;;16.10
7882;BMP180;3986;41.884;23.466;2022-09-09T00:38:19;92410.00;;;15.60
7882;BMP180;3986;41.884;23.466;2022-09-09T00:40:50;92415.00;;;15.50
7882;BMP180;3986;41.884;23.466;2022-09-09T00:43:27;92420.00;;;15.20
7882;BMP180;3986;41.884;23.466;2022-09-09T00:48:58;92406.00;;;15.40
7882;BMP180;3986;41.884;23.466;2022-09-09T00:51:39;92403.00;;;15.20
7882;BMP180;3986;41.884;23.466;2022-09-09T00:54:26;92404.00;;;15.50
7882;BMP180;3986;41.884;23.466;2022-09-09T00:57:04;92402.00;;;15.60
7882;BMP180;3986;41.884;23.466;2022-09-09T00:59:43;92400.00;;;15.60
7882;BMP180;3986;41.884;23.466;2022-09-09T01:02:18;92405.00;;;15.40
7882;BMP180;3986;41.884;23.466;2022-09-09T01:04:49;92400.00;;;15.60
7882;BMP180;3986;41.884;23.466;2022-09-09T01:07:17;92404.00;;;15.60
7882;BMP180;3986;41.884;23.466;2022-09-09T01:09:56;92398.00;;;15.60
7882;BMP180;3986;41.884;23.466;2022-09-09T01:12:26;92403.00;;;15.50
7882;BMP180;3986;41.884;23.466;2022-09-09T01:15:07;92396.00;;;15.00
7882;BMP180;3986;41.884;23.466;2022-09-09T01:17:44;92395.00;;;14.80
7882;BMP180;3986;41.884;23.466;2022-09-09T01:20:16;92368.00;;;15.10
7882;BMP180;3986;41.884;23.466;2022-09-09T01:22:53;92398.00;;;14.90
7882;BMP180;3986;41.884;23.466;2022-09-09T01:25:29;92395.00;;;15.20
7882;BMP180;3986;41.884;23.466;2022-09-09T01:27:59;92395.00;;;15.50
7882;BMP180;3986;41.884;23.466;2022-09-09T01:30:27;92393.00;;;15.10
7882;BMP180;3986;41.884;23.466;2022-09-09T01:32:56;92397.00;;;14.80
7882;BMP180;3986;41.884;23.466;2022-09-09T01:35:36;92406.00;;;15.20
7882;BMP180;3986;41.884;23.466;2022-09-09T01:38:04;92407.00;;;15.40
7882;BMP180;3986;41.884;23.466;2022-09-09T01:40:31;92390.00;;;15.50
7882;BMP180;3986;41.884;23.466;2022-09-09T01:43:00;92386.00;;;15.30
7882;BMP180;3986;41.884;23.466;2022-09-09T01:45:27;92394.00;;;15.00
7882;BMP180;3986;41.884;23.466;2022-09-09T01:47:55;92386.00;;;15.30
7882;BMP180;3986;41.884;23.466;2022-09-09T01:50:22;92375.00;;;15.30
7882;BMP180;3986;41.884;23.466;2022-09-09T01:52:52;92391.00;;;15.50
7882;BMP180;3986;41.884;23.466;2022-09-09T01:55:26;92382.00;;;15.40
7882;BMP180;3986;41.884;23.466;2022-09-09T01:58:06;92396.00;;;15.50
7882;BMP180;3986;41.884;23.466;2022-09-09T02:00:40;92392.00;;;15.40
7882;BMP180;3986;41.884;23.466;2022-09-09T02:03:14;92386.00;;;15.30
7882;BMP180;3986;41.884;23.466;2022-09-09T02:05:49;92399.00;;;15.30
7882;BMP180;3986;41.884;23.466;2022-09-09T02:08:26;92400.00;;;15.40
7882;BMP180;3986;41.884;23.466;2022-09-09T02:10:58;92399.00;;;15.20
7882;BMP180;3986;41.884;23.466;2022-09-09T02:13:29;92391.00;;;15.30
7882;BMP180;3986;41.884;23.466;2022-09-09T02:15:58;92384.00;;;14.80
7882;BMP180;3986;41.884;23.466;2022-09-09T02:18:29;92391.00;;;14.80
7882;BMP180;3986;41.884;23.466;2022-09-09T02:20:58;92385.00;;;14.60
7882;BMP180;3986;41.884;23.466;2022-09-09T02:23:26;92385.00;;;14.60
7882;BMP180;3986;41.884;23.466;2022-09-09T02:25:54;92363.00;;;14.70
7882;BMP180;3986;41.884;23.466;2022-09-09T02:28:27;92387.00;;;14.70
7882;BMP180;3986;41.884;23.466;2022-09-09T02:30:56;92385.00;;;14.70
7882;BMP180;3986;41.884;23.466;2022-09-09T02:33:27;92391.00;;;14.80
7882;BMP180;3986;41.884;23.466;2022-09-09T02:35:56;92392.00;;;14.70
7882;BMP180;3986;41.884;23.466;2022-09-09T02:38:30;92403.00;;;14.90
7882;BMP180;3986;41.884;23.466;2022-09-09T02:41:00;92384.00;;;15.00
7882;BMP180;3986;41.884;23.466;2022-09-09T02:43:32;92265.00;;;14.90
7882;BMP180;3986;41.884;23.466;2022-09-09T02:46:11;92365.00;;;14.80
7882;BMP180;3986;41.884;23.466;2022-09-09T02:48:49;92377.00;;;15.00
7882;BMP180;3986;41.884;23.466;2022-09-09T02:51:23;92383.00;;;15.10
7882;BMP180;3986;41.884;23.466;2022-09-09T02:53:57;92386.00;;;15.20
7882;BMP180;3986;41.884;23.466;2022-09-09T02:56:27;92385.00;;;15.30
7882;BMP180;3986;41.884;23.466;2022-09-09T02:58:57;92377.00;;;15.30
7882;BMP180;3986;41.884;23.466;2022-09-09T03:01:24;92382.00;;;14.90
7882;BMP180;3986;41.884;23.466;2022-09-09T03:03:51;92372.00;;;14.90
7882;BMP180;3986;41.884;23.466;2022-09-09T03:06:18;92368.00;;;14.60
7882;BMP180;3986;41.884;23.466;2022-09-09T03:08:44;92374.00;;;14.60
7882;BMP180;3986;41.884;23.466;2022-09-09T03:11:11;92366.00;;;14.90
7882;BMP180;3986;41.884;23.466;2022-09-09T03:13:39;92372.00;;;14.90
7882;BMP180;3986;41.884;23.466;2022-09-09T03:16:07;92372.00;;;14.40
7882;BMP180;3986;41.884;23.466;2022-09-09T03:18:34;92373.00;;;14.70
7882;BMP180;3986;41.884;23.466;2022-09-09T03:21:01;92371.00;;;14.20
7882;BMP180;3986;41.884;23.466;2022-09-09T03:23:27;92374.00;;;14.10
7882;BMP180;3986;41.884;23.466;2022-09-09T03:25:54;92370.00;;;14.10
7882;BMP180;3986;41.884;23.466;2022-09-09T03:28:22;92378.00;;;14.20
7882;BMP180;3986;41.884;23.466;2022-09-09T03:30:58;92382.00;;;13.70
7882;BMP180;3986;41.884;23.466;2022-09-09T03:33:26;92373.00;;;13.80
7882;BMP180;3986;41.884;23.466;2022-09-09T03:35:55;92377.00;;;14.10
7882;BMP180;3986;41.884;23.466;2022-09-09T03:38:22;92376.00;;;14.10
7882;BMP180;3986;41.884;23.466;2022-09-09T03:40:50;92376.00;;;14.10
7882;BMP180;3986;41.884;23.466;2022-09-09T03:43:18;92375.00;;;14.50
7882;BMP180;3986;41.884;23.466;2022-09-09T03:45:46;92353.00;;;14.40
7882;BMP180;3986;41.884;23.466;2022-09-09T03:48:14;92369.00;;;14.40
7882;BMP180;3986;41.884;23.466;2022-09-09T03:50:45;92373.00;;;14.30
7882;BMP180;3986;41.884;23.466;2022-09-09T03:53:13;92385.00;;;14.50
7882;BMP180;3986;41.884;23.466;2022-09-09T03:55:43;92346.00;;;14.60
7882;BMP180;3986;41.884;23.466;2022-09-09T03:58:11;92384.00;;;14.60
7882;BMP180;3986;41.884;23.466;2022-09-09T04:00:38;92385.00;;;14.70
7882;BMP180;3986;41.884;23.466;2022-09-09T04:03:08;92392.00;;;14.90
7882;BMP180;3986;41.884;23.466;2022-09-09T04:05:34;92377.00;;;14.90
7882;BMP180;3986;41.884;23.466;2022-09-09T04:08:06;92388.00;;;14.90
7882;BMP180;3986;41.884;23.466;2022-09-09T04:10:33;92387.00;;;14.70
7882;BMP180;3986;41.884;23.466;2022-09-09T04:13:02;92387.00;;;14.70
7882;BMP180;3986;41.884;23.466;2022-09-09T04:15:29;92395.00;;;14.60
7882;BMP180;3986;41.884;23.466;2022-09-09T04:17:56;92378.00;;;14.50
7882;BMP180;3986;41.884;23.466;2022-09-09T04:20:23;92372.00;;;14.60
7882;BMP180;3986;41.884;23.466;2022-09-09T04:22:50;92369.00;;;14.80
7882;BMP180;3986;41.884;23.466;2022-09-09T04:25:18;92375.00;;;15.00
7882;BMP180;3986;41.884;23.466;2022-09-09T04:27:45;92386.00;;;14.80
7882;BMP180;3986;41.884;23.466;2022-09-09T04:30:12;92375.00;;;15.00
7882;BMP180;3986;41.884;23.466;2022-09-09T04:32:39;92392.00;;;15.00
7882;BMP180;3986;41.884;23.466;2022-09-09T04:35:07;92390.00;;;14.90
7882;BMP180;3986;41.884;23.466;2022-09-09T04:37:34;92377.00;;;14.90
7882;BMP180;3986;41.884;23.466;2022-09-09T04:40:01;92387.00;;;14.70
7882;BMP180;3986;41.884;23.466;2022-09-09T04:42:29;92396.00;;;14.80
7882;BMP180;3986;41.884;23.466;2022-09-09T04:44:56;92385.00;;;15.10
7882;BMP180;3986;41.884;23.466;2022-09-09T04:47:23;92390.00;;;15.00
7882;BMP180;3986;41.884;23.466;2022-09-09T04:49:50;92388.00;;;15.00
7882;BMP180;3986;41.884;23.466;2022-09-09T04:52:17;92378.00;;;14.80
7882;BMP180;3986;41.884;23.466;2022-09-09T04:54:43;92384.00;;;14.30
7882;BMP180;3986;41.884;23.466;2022-09-09T04:57:11;92388.00;;;14.70
7882;BMP180;3986;41.884;23.466;2022-09-09T04:59:39;92377.00;;;14.70
7882;BMP180;3986;41.884;23.466;2022-09-09T05:02:06;92376.00;;;14.10
7882;BMP180;3986;41.884;23.466;2022-09-09T05:04:33;92375.00;;;14.80
7882;BMP180;3986;41.884;23.466;2022-09-09T05:07:00;92384.00;;;14.80
7882;BMP180;3986;41.884;23.466;2022-09-09T05:09:26;92393.00;;;15.00
7882;BMP180;3986;41.884;23.466;2022-09-09T05:11:53;92398.00;;;15.10
7882;BMP180;3986;41.884;23.466;2022-09-09T05:14:20;92400.00;;;15.20
7882;BMP180;3986;41.884;23.466;2022-09-09T05:16:49;92397.00;;;15.50
7882;BMP180;3986;41.884;23.466;2022-09-09T05:19:16;92395.00;;;15.60
7882;BMP180;3986;41.884;23.466;2022-09-09T05:21:45;92394.00;;;15.70
7882;BMP180;3986;41.884;23.466;2022-09-09T05:24:12;92388.00;;;15.80
7882;BMP180;3986;41.884;23.466;2022-09-09T05:26:39;92396.00;;;15.60
7882;BMP180;3986;41.884;23.466;2022-09-09T05:29:05;92394.00;;;15.70
7882;BMP180;3986;41.884;23.466;2022-09-09T05:31:33;92390.00;;;15.20
7882;BMP180;3986;41.884;23.466;2022-09-09T05:34:02;92386.00;;;15.80
7882;BMP180;3986;41.884;23.466;2022-09-09T05:36:28;92385.00;;;15.20
7882;BMP180;3986;41.884;23.466;2022-09-09T05:38:55;92375.00;;;15.90
7882;BMP180;3986;41.884;23.466;2022-09-09T05:41:22;92368.00;;;16.20
7882;BMP180;3986;41.884;23.466;2022-09-09T05:43:49;92375.00;;;16.70
7882;BMP180;3986;41.884;23.466;2022-09-09T05:46:17;92372.00;;;17.00
7882;BMP180;3986;41.884;23.466;2022-09-09T05:48:45;92383.00;;;16.60
7882;BMP180;3986;41.884;23.466;2022-09-09T05:51:16;92392.00;;;16.10
7882;BMP180;3986;41.884;23.466;2022-09-09T05:53:44;92384.00;;;16.30
7882;BMP180;3986;41.884;23.466;2022-09-09T05:56:13;92375.00;;;17.00
7882;BMP180;3986;41.884;23.466;2022-09-09T05:58:41;92372.00;;;17.10
7882;BMP180;3986;41.884;23.466;2022-09-09T06:01:10;92370.00;;;16.60
7882;BMP180;3986;41.884;23.466;2022-09-09T06:03:39;92374.00;;;17.10
7882;BMP180;3986;41.884;23.466;2022-09-09T06:06:07;92373.00;;;17.20
7882;BMP180;3986;41.884;23.466;2022-09-09T06:08:37;92378.00;;;17.50
7882;BMP180;3986;41.884;23.466;2022-09-09T06:11:06;92377.00;;;17.40
7882;BMP180;3986;41.884;23.466;2022-09-09T06:13:34;92389.00;;;17.60
7882;BMP180;3986;41.884;23.466;2022-09-09T06:16:03;92363.00;;;16.80
7882;BMP180;3986;41.884;23.466;2022-09-09T06:18:30;92378.00;;;17.00
7882;BMP180;3986;41.884;23.466;2022-09-09T06:20:58;92373.00;;;17.80
7882;BMP180;3986;41.884;23.466;2022-09-09T06:23:26;92390.00;;;18.00
7882;BMP180;3986;41.884;23.466;2022-09-09T06:26:03;92395.00;;;18.20
7882;BMP180;3986;41.884;23.466;2022-09-09T06:28:31;92378.00;;;17.70
7882;BMP180;3986;41.884;23.466;2022-09-09T06:30:58;92376.00;;;17.70
7882;BMP180;3986;41.884;23.466;2022-09-09T06:33:25;92375.00;;;17.00
7882;BMP180;3986;41.884;23.466;2022-09-09T06:35:53;92375.00;;;17.00
7882;BMP180;3986;41.884;23.466;2022-09-09T06:38:20;92375.00;;;17.80
7882;BMP180;3986;41.884;23.466;2022-09-09T06:40:51;92373.00;;;17.90
7882;BMP180;3986;41.884;23.466;2022-09-09T06:43:21;92368.00;;;18.90
7882;BMP180;3986;41.884;23.466;2022-09-09T06:45:55;92368.00;;;19.30
7882;BMP180;3986;41.884;23.466;2022-09-09T06:48:22;92364.00;;;19.30
7882;BMP180;3986;41.884;23.466;2022-09-09T06:50:49;92364.00;;;19.50
7882;BMP180;3986;41.884;23.466;2022-09-09T06:53:17;92371.00;;;19.70
7882;BMP180;3986;41.884;23.466;2022-09-09T06:55:45;92373.00;;;19.80
7882;BMP180;3986;41.884;23.466;2022-09-09T06:58:12;92371.00;;;19.80
7882;BMP180;3986;41.884;23.466;2022-09-09T07:00:40;92309.00;;;20.00
7882;BMP180;3986;41.884;23.466;2022-09-09T07:03:07;92376.00;;;20.40
7882;BMP180;3986;41.884;23.466;2022-09-09T07:05:34;92371.00;;;20.70
7882;BMP180;3986;41.884;23.466;2022-09-09T07:08:01;92370.00;;;20.80
7882;BMP180;3986;41.884;23.466;2022-09-09T07:10:28;92373.00;;;20.70
7882;BMP180;3986;41.884;23.466;2022-09-09T07:12:55;92374.00;;;20.80
7882;BMP180;3986;41.884;23.466;2022-09-09T07:15:22;92374.00;;;20.70
7882;BMP180;3986;41.884;23.466;2022-09-09T07:17:51;92367.00;;;21.10
7882;BMP180;3986;41.884;23.466;2022-09-09T07:20:19;92372.00;;;21.20
7882;BMP180;3986;41.884;23.466;2022-09-09T07:22:46;92385.00;;;21.10
7882;BMP180;3986;41.884;23.466;2022-09-09T07:25:13;92371.00;;;21.30
7882;BMP180;3986;41.884;23.466;2022-09-09T07:27:43;92362.00;;;21.30
7882;BMP180;3986;41.884;23.466;2022-09-09T07:30:11;92366.00;;;21.60
7882;BMP180;3986;41.884;23.466;2022-09-09T07:32:38;92363.00;;;21.40
7882;BMP180;3986;41.884;23.466;2022-09-09T07:35:07;92351.00;;;20.90
7882;BMP180;3986;41.884;23.466;2022-09-09T07:37:36;92361.00;;;21.90
7882;BMP180;3986;41.884;23.466;2022-09-09T07:40:03;92359.00;;;21.30
7882;BMP180;3986;41.884;23.466;2022-09-09T07:42:31;92361.00;;;21.80
7882;BMP180;3986;41.884;23.466;2022-09-09T07:44:57;92362.00;;;22.80
7882;BMP180;3986;41.884;23.466;2022-09-09T07:47:24;92353.00;;;23.00
7882;BMP180;3986;41.884;23.466;2022-09-09T07:49:51;92352.00;;;22.90
7882;BMP180;3986;41.884;23.466;2022-09-09T07:52:19;92353.00;;;23.20
7882;BMP180;3986;41.884;23.466;2022-09-09T07:54:46;92358.00;;;23.80
7882;BMP180;3986;41.884;23.466;2022-09-09T07:57:13;92359.00;;;24.10
7882;BMP180;3986;41.884;23.466;2022-09-09T07:59:40;92345.00;;;24.10
7882;BMP180;3986;41.884;23.466;2022-09-09T08:02:08;92346.00;;;24.20
7882;BMP180;3986;41.884;23.466;2022-09-09T08:04:36;92352.00;;;24.60
7882;BMP180;3986;41.884;23.466;2022-09-09T08:07:03;92312.00;;;24.50
7882;BMP180;3986;41.884;23.466;2022-09-09T08:09:31;92350.00;;;24.90
7882;BMP180;3986;41.884;23.466;2022-09-09T08:11:59;92340.00;;;25.30
7882;BMP180;3986;41.884;23.466;2022-09-09T08:14:26;92347.00;;;25.50
7882;BMP180;3986;41.884;23.466;2022-09-09T08:16:55;92341.00;;;24.80
7882;BMP180;3986;41.884;23.466;2022-09-09T08:19:22;92345.00;;;25.30
7882;BMP180;3986;41.884;23.466;2022-09-09T08:21:49;92345.00;;;24.10
7882;BMP180;3986;41.884;23.466;2022-09-09T08:24:16;92338.00;;;25.70
7882;BMP180;3986;41.884;23.466;2022-09-09T08:26:47;92350.00;;;25.90
7882;BMP180;3986;41.884;23.466;2022-09-09T08:29:15;92332.00;;;25.40
7882;BMP180;3986;41.884;23.466;2022-09-09T08:31:43;92336.00;;;26.20
7882;BMP180;3986;41.884;23.466;2022-09-09T08:34:11;92336.00;;;26.90
7882;BMP180;3986;41.884;23.466;2022-09-09T08:36:39;92339.00;;;27.70
7882;BMP180;3986;41.884;23.466;2022-09-09T08:39:08;92334.00;;;28.30
7882;BMP180;3986;41.884;23.466;2022-09-09T08:42:04;92331.00;;;27.40
7882;BMP180;3986;41.884;23.466;2022-09-09T08:44:48;92332.00;;;29.90
7882;BMP180;3986;41.884;23.466;2022-09-09T08:47:24;92336.00;;;30.60
7882;BMP180;3986;41.884;23.466;2022-09-09T08:50:05;92334.00;;;30.50
7882;BMP180;3986;41.884;23.466;2022-09-09T08:52:39;92330.00;;;31.60
7882;BMP180;3986;41.884;23.466;2022-09-09T08:55:18;92331.00;;;32.10
7882;BMP180;3986;41.884;23.466;2022-09-09T08:57:51;92323.00;;;32.70
7882;BMP180;3986;41.884;23.466;2022-09-09T09:00:19;92331.00;;;30.70
7882;BMP180;3986;41.884;23.466;2022-09-09T09:02:51;92315.00;;;31.10
7882;BMP180;3986;41.884;23.466;2022-09-09T09:05:25;92333.00;;;32.60
7882;BMP180;3986;41.884;23.466;2022-09-09T09:08:03;92334.00;;;33.50
7882;BMP180;3986;41.884;23.466;2022-09-09T09:10:41;92340.00;;;37.90
7882;BMP180;3986;41.884;23.466;2022-09-09T09:13:15;92338.00;;;37.20
7882;BMP180;3986;41.884;23.466;2022-09-09T09:15:44;92336.00;;;37.30
7882;BMP180;3986;41.884;23.466;2022-09-09T09:18:13;92295.00;;;37.70
7882;BMP180;3986;41.884;23.466;2022-09-09T09:20:57;92336.00;;;37.80
7882;BMP180;3986;41.884;23.466;2022-09-09T09:23:32;92338.00;;;35.50
7882;BMP180;3986;41.884;23.466;2022-09-09T09:26:07;92331.00;;;32.80
7882;BMP180;3986;41.884;23.466;2022-09-09T09:28:42;92320.00;;;36.50
7882;BMP180;3986;41.884;23.466;2022-09-09T09:31:11;92322.00;;;39.30
7882;BMP180;3986;41.884;23.466;2022-09-09T09:33:45;92308.00;;;34.30
7882;BMP180;3986;41.884;23.466;2022-09-09T09:36:14;92321.00;;;40.40
7882;BMP180;3986;41.884;23.466;2022-09-09T09:38:52;92313.00;;;42.30
7882;BMP180;3986;41.884;23.466;2022-09-09T09:41:31;92324.00;;;45.30
7882;BMP180;3986;41.884;23.466;2022-09-09T09:44:01;92325.00;;;44.60
7882;BMP180;3986;41.884;23.466;2022-09-09T09:46:28;92319.00;;;44.50
7882;BMP180;3986;41.884;23.466;2022-09-09T09:48:59;92332.00;;;42.50
7882;BMP180;3986;41.884;23.466;2022-09-09T09:51:27;92325.00;;;39.70
7882;BMP180;3986;41.884;23.466;2022-09-09T09:53:54;92309.00;;;40.60
7882;BMP180;3986;41.884;23.466;2022-09-09T09:56:31;92325.00;;;37.80
7882;BMP180;3986;41.884;23.466;2022-09-09T09:58:58;92320.00;;;37.20
7882;BMP180;3986;41.884;23.466;2022-09-09T10:01:28;92327.00;;;35.50
7882;BMP180;3986;41.884;23.466;2022-09-09T10:03:59;92313.00;;;34.00
7882;BMP180;3986;41.884;23.466;2022-09-09T10:06:31;92292.00;;;33.10
7882;BMP180;3986;41.884;23.466;2022-09-09T10:08:59;92321.00;;;32.30
7882;BMP180;3986;41.884;23.466;2022-09-09T10:11:38;92308.00;;;31.10
7882;BMP180;3986;41.884;23.466;2022-09-09T10:14:17;92300.00;;;30.70
7882;BMP180;3986;41.884;23.466;2022-09-09T10:16:58;92296.00;;;30.20
7882;BMP180;3986;41.884;23.466;2022-09-09T10:19:30;92282.00;;;28.90
7882;BMP180;3986;41.884;23.466;2022-09-09T10:25:05;92288.00;;;28.40
7882;BMP180;3986;41.884;23.466;2022-09-09T10:27:41;92290.00;;;29.70
7882;BMP180;3986;41.884;23.466;2022-09-09T10:30:16;92287.00;;;31.60
7882;BMP180;3986;41.884;23.466;2022-09-09T10:32:53;92287.00;;;33.80
7882;BMP180;3986;41.884;23.466;2022-09-09T10:35:27;92289.00;;;32.20
7882;BMP180;3986;41.884;23.466;2022-09-09T10:38:12;92283.00;;;29.90
7882;BMP180;3986;41.884;23.466;2022-09-09T10:40:44;92289.00;;;28.50
7882;BMP180;3986;41.884;23.466;2022-09-09T10:43:26;92285.00;;;28.00
7882;BMP180;3986;41.884;23.466;2022-09-09T10:46:03;92280.00;;;27.90
7882;BMP180;3986;41.884;23.466;2022-09-09T10:48:43;92277.00;;;27.40
7882;BMP180;3986;41.884;23.466;2022-09-09T10:51:23;92270.00;;;27.60
7882;BMP180;3986;41.884;23.466;2022-09-09T10:54:19;92282.00;;;29.50
7882;BMP180;3986;41.884;23.466;2022-09-09T10:56:52;92278.00;;;28.80
7882;BMP180;3986;41.884;23.466;2022-09-09T10:59:25;92230.00;;;29.20
7882;BMP180;3986;41.884;23.466;2022-09-09T11:01:57;92275.00;;;29.80
7882;BMP180;3986;41.884;23.466;2022-09-09T11:04:29;92270.00;;;29.80
7882;BMP180;3986;41.884;23.466;2022-09-09T11:06:59;92277.00;;;32.00
7882;BMP180;3986;41.884;23.466;2022-09-09T11:09:33;92271.00;;;31.80
7882;BMP180;3986;41.884;23.466;2022-09-09T11:12:03;92269.00;;;32.00
7882;BMP180;3986;41.884;23.466;2022-09-09T11:14:36;92263.00;;;30.60
7882;BMP180;3986;41.884;23.466;2022-09-09T11:17:08;92255.00;;;30.00
7882;BMP180;3986;41.884;23.466;2022-09-09T11:19:39;92268.00;;;32.60
7882;BMP180;3986;41.884;23.466;2022-09-09T11:22:12;92261.00;;;32.00
7882;BMP180;3986;41.884;23.466;2022-09-09T11:24:44;92255.00;;;34.60
7882;BMP180;3986;41.884;23.466;2022-09-09T11:27:15;92257.00;;;36.10
7882;BMP180;3986;41.884;23.466;2022-09-09T11:30:04;92215.00;;;34.70
7882;BMP180;3986;41.884;23.466;2022-09-09T11:32:58;92252.00;;;33.10
7882;BMP180;3986;41.884;23.466;2022-09-09T11:35:40;92249.00;;;36.90
7882;BMP180;3986;41.884;23.466;2022-09-09T11:38:17;92248.00;;;32.10
7882;BMP180;3986;41.884;23.466;2022-09-09T11:40:45;92245.00;;;36.10
7882;BMP180;3986;41.884;23.466;2022-09-09T11:43:15;92243.00;;;36.60
7882;BMP180;3986;41.884;23.466;2022-09-09T11:45:51;92240.00;;;33.30
7882;BMP180;3986;41.884;23.466;2022-09-09T11:48:25;92250.00;;;33.70
7882;BMP180;3986;41.884;23.466;2022-09-09T11:51:03;92256.00;;;33.70
7882;BMP180;3986;41.884;23.466;2022-09-09T11:53:33;92248.00;;;31.70
7882;BMP180;3986;41.884;23.466;2022-09-09T11:56:11;92244.00;;;30.90
7882;BMP180;3986;41.884;23.466;2022-09-09T11:58:42;92244.00;;;29.40
7882;BMP180;3986;41.884;23.466;2022-09-09T12:01:27;92248.00;;;30.70
7882;BMP180;3986;41.884;23.466;2022-09-09T12:06:52;92232.00;;;30.80
7882;BMP180;3986;41.884;23.466;2022-09-09T12:09:27;92232.00;;;30.90
7882;BMP180;3986;41.884;23.466;2022-09-09T12:12:07;92221.00;;;30.50
7882;BMP180;3986;41.884;23.466;2022-09-09T12:15:15;92232.00;;;31.20
7882;BMP180;3986;41.884;23.466;2022-09-09T12:17:47;92233.00;;;31.60
7882;BMP180;3986;41.884;23.466;2022-09-09T12:20:17;92228.00;;;31.30
7882;BMP180;3986;41.884;23.466;2022-09-09T12:23:13;92224.00;;;31.90
7882;BMP180;3986;41.884;23.466;2022-09-09T12:25:58;92226.00;;;30.90
7882;BMP180;3986;41.884;23.466;2022-09-09T12:28:39;92233.00;;;33.60
7882;BMP180;3986;41.884;23.466;2022-09-09T12:31:10;92219.00;;;34.10
7882;BMP180;3986;41.884;23.466;2022-09-09T12:33:43;92211.00;;;33.30
7882;BMP180;3986;41.884;23.466;2022-09-09T12:36:14;92202.00;;;32.90
7882;BMP180;3986;41.884;23.466;2022-09-09T12:38:43;92206.00;;;34.20
7882;BMP180;3986;41.884;23.466;2022-09-09T12:41:19;92204.00;;;32.20
7882;BMP180;3986;41.884;23.466;2022-09-09T12:43:46;92203.00;;;33.50
7882;BMP180;3986;41.884;23.466;2022-09-09T12:46:21;92199.00;;;33.40
7882;BMP180;3986;41.884;23.466;2022-09-09T12:48:52;92202.00;;;33.70
7882;BMP180;3986;41.884;23.466;2022-09-09T12:51:24;92191.00;;;31.20
7882;BMP180;3986;41.884;23.466;2022-09-09T12:53:54;92140.00;;;31.60
7882;BMP180;3986;41.884;23.466;2022-09-09T12:56:24;92186.00;;;29.80
7882;BMP180;3986;41.884;23.466;2022-09-09T12:58:53;92180.00;;;31.30
7882;BMP180;3986;41.884;23.466;2022-09-09T13:01:23;92174.00;;;31.40
7882;BMP180;3986;41.884;23.466;2022-09-09T13:03:50;92175.00;;;30.70
7882;BMP180;3986;41.884;23.466;2022-09-09T13:06:21;92180.00;;;31.20
7882;BMP180;3986;41.884;23.466;2022-09-09T13:08:49;92175.00;;;30.90
7882;BMP180;3986;41.884;23.466;2022-09-09T13:11:20;92181.00;;;31.40
7882;BMP180;3986;41.884;23.466;2022-09-09T13:13:51;92170.00;;;31.00
7882;BMP180;3986;41.884;23.466;2022-09-09T13:16:20;92177.00;;;28.70
7882;BMP180;3986;41.884;23.466;2022-09-09T13:18:48;92171.00;;;29.30
7882;BMP180;3986;41.884;23.466;2022-09-09T13:21:16;92174.00;;;29.50
7882;BMP180;3986;41.884;23.466;2022-09-09T13:23:48;92173.00;;;29.80
7882;BMP180;3986;41.884;23.466;2022-09-09T13:26:25;92166.00;;;29.90
7882;BMP180;3986;41.884;23.466;2022-09-09T13:28:53;92152.00;;;29.10
7882;BMP180;3986;41.884;23.466;2022-09-09T13:31:22;92170.00;;;29.30
7882;BMP180;3986;41.884;23.466;2022-09-09T13:33:49;92183.00;;;30.00
7882;BMP180;3986;41.884;23.466;2022-09-09T13:36:28;92168.00;;;29.30
7882;BMP180;3986;41.884;23.466;2022-09-09T13:38:57;92184.00;;;29.70
7882;BMP180;3986;41.884;23.466;2022-09-09T13:41:29;92165.00;;;28.50
7882;BMP180;3986;41.884;23.466;2022-09-09T13:43:58;92168.00;;;27.80
7882;BMP180;3986;41.884;23.466;2022-09-09T13:46:31;92173.00;;;27.40
7882;BMP180;3986;41.884;23.466;2022-09-09T13:49:00;92174.00;;;26.90
7882;BMP180;3986;41.884;23.466;2022-09-09T13:51:34;92167.00;;;27.30
7882;BMP180;3986;41.884;23.466;2022-09-09T13:54:03;92171.00;;;26.90
7882;BMP180;3986;41.884;23.466;2022-09-09T13:56:33;92166.00;;;27.00
7882;BMP180;3986;41.884;23.466;2022-09-09T13:58:59;92176.00;;;26.80
7882;BMP180;3986;41.884;23.466;2022-09-09T14:01:27;92189.00;;;26.50
7882;BMP180;3986;41.884;23.466;2022-09-09T14:03:54;92180.00;;;26.20
7882;BMP180;3986;41.884;23.466;2022-09-09T14:06:21;92176.00;;;26.30
7882;BMP180;3986;41.884;23.466;2022-09-09T14:08:49;92175.00;;;26.90
7882;BMP180;3986;41.884;23.466;2022-09-09T14:11:17;92173.00;;;26.30
7882;BMP180;3986;41.884;23.466;2022-09-09T14:13:45;92165.00;;;26.40
7882;BMP180;3986;41.884;23.466;2022-09-09T14:16:12;92172.00;;;27.10
7882;BMP180;3986;41.884;23.466;2022-09-09T14:18:39;92170.00;;;27.60
7882;BMP180;3986;41.884;23.466;2022-09-09T14:21:06;92160.00;;;27.20
7882;BMP180;3986;41.884;23.466;2022-09-09T14:23:34;92167.00;;;27.40
7882;BMP180;3986;41.884;23.466;2022-09-09T14:26:01;92171.00;;;26.10
7882;BMP180;3986;41.884;23.466;2022-09-09T14:28:28;92171.00;;;27.10
7882;BMP180;3986;41.884;23.466;2022-09-09T14:30:59;92169.00;;;25.90
7882;BMP180;3986;41.884;23.466;2022-09-09T14:33:26;92150.00;;;25.80
7882;BMP180;3986;41.884;23.466;2022-09-09T14:35:56;92160.00;;;26.50
7882;BMP180;3986;41.884;23.466;2022-09-09T14:38:24;92166.00;;;25.80
7882;BMP180;3986;41.884;23.466;2022-09-09T14:40:51;92159.00;;;26.40
7882;BMP180;3986;41.884;23.466;2022-09-09T14:43:17;92159.00;;;25.50
7882;BMP180;3986;41.884;23.466;2022-09-09T14:45:45;92152.00;;;25.60
7882;BMP180;3986;41.884;23.466;2022-09-09T14:48:14;92144.00;;;25.50
7882;BMP180;3986;41.884;23.466;2022-09-09T14:50:41;92143.00;;;25.70